sensor_id;sensor_type;location;lat;lon;timestamp;pressure;altitude;pressure_sealevel;temperature;humidity
42067;BME280;27734;47.028;28.820;2024-02-15T00:02:25;100979.08;;;4.35;87.57
42067;BME280;27734;47.028;28.820;2024-02-15T00:04:56;100967.80;;;4.34;88.07
42067;BME280;27734;47.028;28.820;2024-02-15T00:07:27;100973.09;;;4.36;87.57
42067;BME280;27734;47.028;28.820;2024-02-15T00:09:58;100979.08;;;4.35;87.87
42067;BME280;27734;47.028;28.820;2024-02-15T00:12:31;100970.50;;;4.36;88.21
42067;BME280;27734;47.028;28.820;2024-02-15T00:15:02;100984.38;;;4.36;87.69
42067;BME280;27734;47.028;28.820;2024-02-15T00:17:35;100982.59;;;4.35;87.76
42067;BME280;27734;47.028;28.820;2024-02-15T00:20:08;100979.08;;;4.35;87.93
42067;BME280;27734;47.028;28.820;2024-02-15T00:22:39;100974.91;;;4.37;88.09
42067;BME280;27734;47.028;28.820;2024-02-15T00:25:11;100976.80;;;4.39;87.66
42067;BME280;27734;47.028;28.820;2024-02-15T00:27:43;100976.90;;;4.41;88.09
42067;BME280;27734;47.028;28.820;2024-02-15T00:30:17;100969.71;;;4.37;87.68
42067;BME280;27734;47.028;28.820;2024-02-15T00:32:48;100963.48;;;4.35;87.84
42067;BME280;27734;47.028;28.820;2024-02-15T00:35:19;100966.09;;;4.35;88.24
42067;BME280;27734;47.028;28.820;2024-02-15T00:37:50;100978.97;;;4.33;87.72
42067;BME280;27734;47.028;28.820;2024-02-15T00:40:22;100977.30;;;4.34;87.77
42067;BME280;27734;47.028;28.820;2024-02-15T00:42:53;100970.28;;;4.32;87.93
42067;BME280;27734;47.028;28.820;2024-02-15T00:45:24;100959.89;;;4.32;87.63
42067;BME280;27734;47.028;28.820;2024-02-15T00:47:56;100966.91;;;4.34;87.67
42067;BME280;27734;47.028;28.820;2024-02-15T00:50:27;100955.48;;;4.31;87.96
42067;BME280;27734;47.028;28.820;2024-02-15T00:52:58;100960.68;;;4.31;87.87
42067;BME280;27734;47.028;28.820;2024-02-15T00:55:29;100967.38;;;4.28;87.44
42067;BME280;27734;47.028;28.820;2024-02-15T00:58:00;100957.88;;;4.28;88.07
42067;BME280;27734;47.028;28.820;2024-02-15T01:00:31;100952.47;;;4.25;87.32
42067;BME280;27734;47.028;28.820;2024-02-15T01:03:05;100949.97;;;4.27;88.15
42067;BME280;27734;47.028;28.820;2024-02-15T01:05:37;100957.88;;;4.28;87.79
42067;BME280;27734;47.028;28.820;2024-02-15T01:08:08;100953.49;;;4.27;88.06
42067;BME280;27734;47.028;28.820;2024-02-15T01:10:40;100958.48;;;4.24;88.24
42067;BME280;27734;47.028;28.820;2024-02-15T01:13:11;100957.56;;;4.24;88.16
42067;BME280;27734;47.028;28.820;2024-02-15T01:15:43;100958.38;;;4.23;88.23
42067;BME280;27734;47.028;28.820;2024-02-15T01:18:14;100973.04;;;4.22;88.35
42067;BME280;27734;47.028;28.820;2024-02-15T01:20:45;100959.98;;;4.21;88.27
42067;BME280;27734;47.028;28.820;2024-02-15T01:23:16;100957.38;;;4.21;88.02
42067;BME280;27734;47.028;28.820;2024-02-15T01:25:48;100963.47;;;4.21;88.19
42067;BME280;27734;47.028;28.820;2024-02-15T01:28:19;100967.77;;;4.21;88.07
42067;BME280;27734;47.028;28.820;2024-02-15T01:30:50;100974.64;;;4.20;87.99
42067;BME280;27734;47.028;28.820;2024-02-15T01:33:21;100971.16;;;4.20;88.31
42067;BME280;27734;47.028;28.820;2024-02-15T01:35:52;100981.65;;;4.21;87.58
42067;BME280;27734;47.028;28.820;2024-02-15T01:38:23;100975.56;;;4.21;88.50
42067;BME280;27734;47.028;28.820;2024-02-15T01:40:55;100983.36;;;4.21;88.34
42067;BME280;27734;47.028;28.820;2024-02-15T01:43:26;100983.25;;;4.19;88.01
42067;BME280;27734;47.028;28.820;2024-02-15T01:45:57;100987.62;;;4.20;87.75
42067;BME280;27734;47.028;28.820;2024-02-15T01:48:33;100993.82;;;4.22;87.85
42067;BME280;27734;47.028;28.820;2024-02-15T01:51:04;100993.82;;;4.22;87.99
42067;BME280;27734;47.028;28.820;2024-02-15T01:53:36;100989.44;;;4.21;88.23
42067;BME280;27734;47.028;28.820;2024-02-15T01:56:08;100992.93;;;4.22;88.01
42067;BME280;27734;47.028;28.820;2024-02-15T01:58:41;100997.34;;;4.23;87.70
42067;BME280;27734;47.028;28.820;2024-02-15T02:01:14;100994.75;;;4.23;88.16
42067;BME280;27734;47.028;28.820;2024-02-15T02:03:45;100996.52;;;4.24;88.42
42067;BME280;27734;47.028;28.820;2024-02-15T02:06:17;100991.16;;;4.21;88.10
42067;BME280;27734;47.028;28.820;2024-02-15T02:08:49;101003.22;;;4.20;88.63
42067;BME280;27734;47.028;28.820;2024-02-15T02:11:20;101001.55;;;4.21;88.53
42067;BME280;27734;47.028;28.820;2024-02-15T02:13:54;100999.73;;;4.20;88.07
42067;BME280;27734;47.028;28.820;2024-02-15T02:16:30;100993.53;;;4.18;88.18
42067;BME280;27734;47.028;28.820;2024-02-15T02:19:01;100998.73;;;4.18;88.22
42067;BME280;27734;47.028;28.820;2024-02-15T02:21:37;101001.44;;;4.19;88.54
42067;BME280;27734;47.028;28.820;2024-02-15T02:24:14;101001.55;;;4.21;88.28
42067;BME280;27734;47.028;28.820;2024-02-15T02:26:49;101007.73;;;4.23;88.16
42067;BME280;27734;47.028;28.820;2024-02-15T02:29:20;101003.32;;;4.22;88.11
42067;BME280;27734;47.028;28.820;2024-02-15T02:31:52;101014.61;;;4.22;88.39
42067;BME280;27734;47.028;28.820;2024-02-15T02:34:23;101003.11;;;4.19;88.64
42067;BME280;27734;47.028;28.820;2024-02-15T02:36:55;101003.92;;;4.18;88.70
42067;BME280;27734;47.028;28.820;2024-02-15T02:39:26;101002.22;;;4.18;88.73
42067;BME280;27734;47.028;28.820;2024-02-15T02:42:01;101008.30;;;4.19;87.93
42067;BME280;27734;47.028;28.820;2024-02-15T02:44:32;101014.42;;;4.19;88.00
42067;BME280;27734;47.028;28.820;2024-02-15T02:47:04;101014.20;;;4.16;88.19
42067;BME280;27734;47.028;28.820;2024-02-15T02:49:36;101015.78;;;4.14;88.42
42067;BME280;27734;47.028;28.820;2024-02-15T02:52:08;101013.18;;;4.14;88.73
42067;BME280;27734;47.028;28.820;2024-02-15T02:54:39;101010.58;;;4.14;88.26
42067;BME280;27734;47.028;28.820;2024-02-15T02:57:10;101006.09;;;4.11;88.23
42067;BME280;27734;47.028;28.820;2024-02-15T02:59:42;101010.37;;;4.11;88.25
42067;BME280;27734;47.028;28.820;2024-02-15T03:02:13;101012.75;;;4.08;88.78
42067;BME280;27734;47.028;28.820;2024-02-15T03:04:44;101025.73;;;4.08;88.18
42067;BME280;27734;47.028;28.820;2024-02-15T03:07:17;101010.16;;;4.08;88.63
42067;BME280;27734;47.028;28.820;2024-02-15T03:09:48;101020.55;;;4.08;89.02
42067;BME280;27734;47.028;28.820;2024-02-15T03:12:19;101018.66;;;4.05;88.23
42067;BME280;27734;47.028;28.820;2024-02-15T03:14:50;101024.63;;;4.04;88.84
42067;BME280;27734;47.028;28.820;2024-02-15T03:17:21;101030.72;;;4.05;88.57
42067;BME280;27734;47.028;28.820;2024-02-15T03:19:53;101022.14;;;4.06;88.01
42067;BME280;27734;47.028;28.820;2024-02-15T03:22:25;101017.84;;;4.06;88.81
42067;BME280;27734;47.028;28.820;2024-02-15T03:24:59;101021.47;;;4.08;88.11
42067;BME280;27734;47.028;28.820;2024-02-15T03:27:30;101012.75;;;4.08;88.94
42067;BME280;27734;47.028;28.820;2024-02-15T03:30:02;101020.55;;;4.08;89.09
42067;BME280;27734;47.028;28.820;2024-02-15T03:32:34;101025.52;;;4.05;88.89
42067;BME280;27734;47.028;28.820;2024-02-15T03:35:05;101017.52;;;4.02;88.47
42067;BME280;27734;47.028;28.820;2024-02-15T03:37:37;101015.84;;;4.02;89.03
42067;BME280;27734;47.028;28.820;2024-02-15T03:40:10;101011.53;;;4.03;88.68
42067;BME280;27734;47.028;28.820;2024-02-15T03:42:41;101012.53;;;4.05;89.05
42067;BME280;27734;47.028;28.820;2024-02-15T03:45:13;101013.45;;;4.05;89.24
42067;BME280;27734;47.028;28.820;2024-02-15T03:47:44;101016.95;;;4.06;88.61
42067;BME280;27734;47.028;28.820;2024-02-15T03:50:16;101013.56;;;4.07;88.44
42067;BME280;27734;47.028;28.820;2024-02-15T03:52:48;101006.77;;;4.09;89.32
42067;BME280;27734;47.028;28.820;2024-02-15T03:55:21;101010.16;;;4.08;88.80
42067;BME280;27734;47.028;28.820;2024-02-15T03:57:53;101012.53;;;4.05;89.37
42067;BME280;27734;47.028;28.820;2024-02-15T04:00:27;101009.72;;;4.02;89.08
42067;BME280;27734;47.028;28.820;2024-02-15T04:02:59;101020.11;;;4.02;89.09
42067;BME280;27734;47.028;28.820;2024-02-15T04:05:30;101012.22;;;4.00;89.60
42067;BME280;27734;47.028;28.820;2024-02-15T04:08:03;101015.63;;;3.99;88.78
42067;BME280;27734;47.028;28.820;2024-02-15T04:10:35;101012.22;;;4.00;89.17
42067;BME280;27734;47.028;28.820;2024-02-15T04:13:06;101020.11;;;4.02;89.75
42067;BME280;27734;47.028;28.820;2024-02-15T04:15:38;101003.53;;;4.00;88.92
42067;BME280;27734;47.028;28.820;2024-02-15T04:18:09;101022.70;;;4.02;89.23
42067;BME280;27734;47.028;28.820;2024-02-15T04:20:40;101013.92;;;4.00;89.19
42067;BME280;27734;47.028;28.820;2024-02-15T04:23:14;101013.92;;;4.00;89.20
42067;BME280;27734;47.028;28.820;2024-02-15T04:25:46;101013.81;;;3.98;89.73
42067;BME280;27734;47.028;28.820;2024-02-15T04:28:21;101012.92;;;3.98;89.63
42067;BME280;27734;47.028;28.820;2024-02-15T04:30:52;101018.90;;;3.96;89.33
42067;BME280;27734;47.028;28.820;2024-02-15T04:33:23;101025.80;;;3.96;89.23
42067;BME280;27734;47.028;28.820;2024-02-15T04:35:55;101022.28;;;3.95;89.92
42067;BME280;27734;47.028;28.820;2024-02-15T04:38:27;101023.98;;;3.95;89.94
42067;BME280;27734;47.028;28.820;2024-02-15T04:41:00;101033.48;;;3.94;90.05
42067;BME280;27734;47.028;28.820;2024-02-15T04:43:33;101021.28;;;3.93;89.59
42067;BME280;27734;47.028;28.820;2024-02-15T04:46:07;101024.66;;;3.92;89.77
42067;BME280;27734;47.028;28.820;2024-02-15T04:48:39;101017.79;;;3.93;89.47
42067;BME280;27734;47.028;28.820;2024-02-15T04:51:14;101017.79;;;3.93;89.95
42067;BME280;27734;47.028;28.820;2024-02-15T04:53:46;101025.69;;;3.94;89.82
42067;BME280;27734;47.028;28.820;2024-02-15T04:56:18;101027.47;;;3.95;89.26
42067;BME280;27734;47.028;28.820;2024-02-15T04:58:50;101034.26;;;3.93;89.65
42067;BME280;27734;47.028;28.820;2024-02-15T05:01:22;101042.16;;;3.95;89.82
42067;BME280;27734;47.028;28.820;2024-02-15T05:03:53;101044.75;;;3.95;89.66
42067;BME280;27734;47.028;28.820;2024-02-15T05:06:25;101037.75;;;3.94;89.97
42067;BME280;27734;47.028;28.820;2024-02-15T05:09:00;101048.84;;;3.91;89.72
42067;BME280;27734;47.028;28.820;2024-02-15T05:11:36;101050.51;;;3.91;89.96
42067;BME280;27734;47.028;28.820;2024-02-15T05:14:09;101055.70;;;3.91;89.70
42067;BME280;27734;47.028;28.820;2024-02-15T05:16:40;101054.92;;;3.92;90.00
42067;BME280;27734;47.028;28.820;2024-02-15T05:19:13;101059.23;;;3.91;89.68
42067;BME280;27734;47.028;28.820;2024-02-15T05:21:45;101064.42;;;3.91;89.70
42067;BME280;27734;47.028;28.820;2024-02-15T05:24:17;101054.70;;;3.89;89.47
42067;BME280;27734;47.028;28.820;2024-02-15T05:26:49;101066.09;;;3.91;90.09
42067;BME280;27734;47.028;28.820;2024-02-15T05:29:20;101066.20;;;3.92;90.04
42067;BME280;27734;47.028;28.820;2024-02-15T05:31:53;101066.20;;;3.92;90.04
42067;BME280;27734;47.028;28.820;2024-02-15T05:34:24;101070.39;;;3.90;90.43
42067;BME280;27734;47.028;28.820;2024-02-15T05:36:55;101070.50;;;3.92;90.25
42067;BME280;27734;47.028;28.820;2024-02-15T05:39:26;101075.02;;;3.94;90.61
42067;BME280;27734;47.028;28.820;2024-02-15T05:41:58;101077.73;;;3.96;90.39
42067;BME280;27734;47.028;28.820;2024-02-15T05:44:31;101082.00;;;3.95;90.12
42067;BME280;27734;47.028;28.820;2024-02-15T05:47:02;101085.41;;;3.94;90.47
42067;BME280;27734;47.028;28.820;2024-02-15T05:49:33;101086.41;;;3.96;90.19
42067;BME280;27734;47.028;28.820;2024-02-15T05:52:06;101078.63;;;3.96;90.09
42067;BME280;27734;47.028;28.820;2024-02-15T05:54:38;101083.03;;;3.98;90.19
42067;BME280;27734;47.028;28.820;2024-02-15T05:57:11;101087.41;;;3.99;90.18
42067;BME280;27734;47.028;28.820;2024-02-15T05:59:44;101096.23;;;4.01;90.08
42067;BME280;27734;47.028;28.820;2024-02-15T06:02:15;101087.63;;;4.02;89.71
42067;BME280;27734;47.028;28.820;2024-02-15T06:04:47;101097.34;;;4.04;90.31
42067;BME280;27734;47.028;28.820;2024-02-15T06:07:18;101092.16;;;4.04;89.78
42067;BME280;27734;47.028;28.820;2024-02-15T06:09:49;101093.97;;;4.05;90.45
42067;BME280;27734;47.028;28.820;2024-02-15T06:12:21;101088.88;;;4.07;90.07
42067;BME280;27734;47.028;28.820;2024-02-15T06:14:52;101094.30;;;4.10;90.35
42067;BME280;27734;47.028;28.820;2024-02-15T06:17:23;101098.67;;;4.11;90.42
42067;BME280;27734;47.028;28.820;2024-02-15T06:20:00;101099.81;;;4.14;90.36
42067;BME280;27734;47.028;28.820;2024-02-15T06:22:31;101081.75;;;4.16;90.38
42067;BME280;27734;47.028;28.820;2024-02-15T06:25:02;101096.62;;;4.19;90.91
42067;BME280;27734;47.028;28.820;2024-02-15T06:27:35;101089.75;;;4.19;90.12
42067;BME280;27734;47.028;28.820;2024-02-15T06:30:11;101087.16;;;4.19;90.09
42067;BME280;27734;47.028;28.820;2024-02-15T06:33:01;101092.54;;;4.22;90.05
42067;BME280;27734;47.028;28.820;2024-02-15T06:36:08;101082.58;;;4.28;90.63
42067;BME280;27734;47.028;28.820;2024-02-15T06:39:02;101100.41;;;4.36;90.60
42067;BME280;27734;47.028;28.820;2024-02-15T06:41:52;101092.94;;;4.40;90.31
42067;BME280;27734;47.028;28.820;2024-02-15T06:44:23;101099.24;;;4.44;90.25
42067;BME280;27734;47.028;28.820;2024-02-15T06:46:58;101087.49;;;4.49;89.99
42067;BME280;27734;47.028;28.820;2024-02-15T06:49:34;101096.08;;;4.48;89.60
42067;BME280;27734;47.028;28.820;2024-02-15T06:52:07;101088.06;;;4.45;89.81
42067;BME280;27734;47.028;28.820;2024-02-15T06:54:41;101098.25;;;4.42;89.33
42067;BME280;27734;47.028;28.820;2024-02-15T06:57:11;101104.22;;;4.41;89.26
42067;BME280;27734;47.028;28.820;2024-02-15T06:59:45;101097.36;;;4.41;89.60
42067;BME280;27734;47.028;28.820;2024-02-15T07:02:19;101099.35;;;4.45;89.47
42067;BME280;27734;47.028;28.820;2024-02-15T07:04:53;101097.08;;;4.50;89.58
42067;BME280;27734;47.028;28.820;2024-02-15T07:07:25;101094.80;;;4.55;89.27
42067;BME280;27734;47.028;28.820;2024-02-15T07:09:58;101094.12;;;4.57;89.53
42067;BME280;27734;47.028;28.820;2024-02-15T07:12:32;101097.82;;;4.61;89.68
42067;BME280;27734;47.028;28.820;2024-02-15T07:15:07;101095.11;;;4.59;89.61
42067;BME280;27734;47.028;28.820;2024-02-15T07:17:44;101101.23;;;4.60;89.54
42067;BME280;27734;47.028;28.820;2024-02-15T07:20:20;101095.94;;;4.58;89.44
42067;BME280;27734;47.028;28.820;2024-02-15T07:22:54;101099.74;;;4.63;89.74
42067;BME280;27734;47.028;28.820;2024-02-15T07:25:29;101103.34;;;4.65;89.61
42067;BME280;27734;47.028;28.820;2024-02-15T07:28:00;101109.56;;;4.67;89.85
42067;BME280;27734;47.028;28.820;2024-02-15T07:30:33;101116.55;;;4.68;89.11
42067;BME280;27734;47.028;28.820;2024-02-15T07:33:07;101118.15;;;4.66;89.90
42067;BME280;27734;47.028;28.820;2024-02-15T07:35:38;101120.75;;;4.66;89.89
42067;BME280;27734;47.028;28.820;2024-02-15T07:38:15;101118.26;;;4.68;90.34
42067;BME280;27734;47.028;28.820;2024-02-15T07:40:48;101117.37;;;4.67;89.71
42067;BME280;27734;47.028;28.820;2024-02-15T07:43:21;101119.25;;;4.70;89.70
42067;BME280;27734;47.028;28.820;2024-02-15T07:45:53;101116.76;;;4.72;89.79
42067;BME280;27734;47.028;28.820;2024-02-15T07:48:24;101117.08;;;4.76;89.88
42067;BME280;27734;47.028;28.820;2024-02-15T07:50:56;101120.00;;;4.81;90.04
42067;BME280;27734;47.028;28.820;2024-02-15T07:53:28;101117.81;;;4.87;90.06
42067;BME280;27734;47.028;28.820;2024-02-15T07:56:00;101128.43;;;4.90;89.76
42067;BME280;27734;47.028;28.820;2024-02-15T07:58:32;101137.12;;;4.91;90.02
42067;BME280;27734;47.028;28.820;2024-02-15T08:01:07;101133.42;;;4.87;89.15
42067;BME280;27734;47.028;28.820;2024-02-15T08:03:44;101123.02;;;4.87;89.82
42067;BME280;27734;47.028;28.820;2024-02-15T08:06:16;101126.51;;;4.88;89.34
42067;BME280;27734;47.028;28.820;2024-02-15T08:08:48;101127.64;;;4.91;89.76
42067;BME280;27734;47.028;28.820;2024-02-15T08:11:21;101127.64;;;4.91;90.05
42067;BME280;27734;47.028;28.820;2024-02-15T08:13:53;101129.53;;;4.94;89.57
42067;BME280;27734;47.028;28.820;2024-02-15T08:16:28;101127.25;;;4.98;89.48
42067;BME280;27734;47.028;28.820;2024-02-15T08:19:00;101126.77;;;5.04;89.89
42067;BME280;27734;47.028;28.820;2024-02-15T08:21:41;101130.58;;;5.09;89.25
42067;BME280;27734;47.028;28.820;2024-02-15T08:24:25;101131.70;;;5.13;89.23
42067;BME280;27734;47.028;28.820;2024-02-15T08:26:56;101138.80;;;5.15;89.78
42067;BME280;27734;47.028;28.820;2024-02-15T08:29:29;101139.83;;;5.17;89.54
42067;BME280;27734;47.028;28.820;2024-02-15T08:32:00;101134.31;;;5.13;89.72
42067;BME280;27734;47.028;28.820;2024-02-15T08:34:32;101134.20;;;5.11;89.44
42067;BME280;27734;47.028;28.820;2024-02-15T08:37:03;101132.59;;;5.13;89.59
42067;BME280;27734;47.028;28.820;2024-02-15T08:39:34;101135.20;;;5.13;89.43
42067;BME280;27734;47.028;28.820;2024-02-15T08:42:06;101130.89;;;5.14;89.58
42067;BME280;27734;47.028;28.820;2024-02-15T08:44:37;101126.50;;;5.13;89.41
42067;BME280;27734;47.028;28.820;2024-02-15T08:47:11;101125.79;;;5.15;89.78
42067;BME280;27734;47.028;28.820;2024-02-15T08:49:42;101138.32;;;5.21;89.49
42067;BME280;27734;47.028;28.820;2024-02-15T08:52:13;101135.72;;;5.21;88.63
42067;BME280;27734;47.028;28.820;2024-02-15T08:54:47;101138.32;;;5.21;89.25
42067;BME280;27734;47.028;28.820;2024-02-15T08:57:22;101133.12;;;5.21;89.14
42067;BME280;27734;47.028;28.820;2024-02-15T08:59:54;101135.72;;;5.21;89.05
42067;BME280;27734;47.028;28.820;2024-02-15T09:02:26;101133.91;;;5.20;88.50
42067;BME280;27734;47.028;28.820;2024-02-15T09:05:02;101131.41;;;5.21;88.85
42067;BME280;27734;47.028;28.820;2024-02-15T09:07:34;101128.33;;;5.27;89.13
42067;BME280;27734;47.028;28.820;2024-02-15T09:10:08;101126.81;;;5.31;89.17
42067;BME280;27734;47.028;28.820;2024-02-15T09:12:41;101113.91;;;5.32;87.98
42067;BME280;27734;47.028;28.820;2024-02-15T09:15:13;101120.52;;;5.40;89.03
42067;BME280;27734;47.028;28.820;2024-02-15T09:17:45;101120.34;;;5.51;89.13
42067;BME280;27734;47.028;28.820;2024-02-15T09:20:19;101120.54;;;5.54;88.79
42067;BME280;27734;47.028;28.820;2024-02-15T09:22:51;101115.63;;;5.58;88.76
42067;BME280;27734;47.028;28.820;2024-02-15T09:25:24;101117.75;;;5.64;88.66
42067;BME280;27734;47.028;28.820;2024-02-15T09:27:58;101116.14;;;5.66;88.99
42067;BME280;27734;47.028;28.820;2024-02-15T09:30:29;101114.33;;;5.65;88.78
42067;BME280;27734;47.028;28.820;2024-02-15T09:33:05;101111.82;;;5.67;88.89
42067;BME280;27734;47.028;28.820;2024-02-15T09:35:40;101119.05;;;5.71;88.56
42067;BME280;27734;47.028;28.820;2024-02-15T09:38:15;101115.02;;;5.76;88.43
42067;BME280;27734;47.028;28.820;2024-02-15T09:40:51;101120.33;;;5.78;88.42
42067;BME280;27734;47.028;28.820;2024-02-15T09:43:27;101120.03;;;5.73;88.26
42067;BME280;27734;47.028;28.820;2024-02-15T09:46:00;101118.16;;;5.70;88.21
42067;BME280;27734;47.028;28.820;2024-02-15T09:48:35;101119.73;;;5.68;87.95
42067;BME280;27734;47.028;28.820;2024-02-15T09:51:08;101119.05;;;5.71;88.07
42067;BME280;27734;47.028;28.820;2024-02-15T09:53:42;101114.03;;;5.74;87.60
42067;BME280;27734;47.028;28.820;2024-02-15T09:56:14;101117.73;;;5.78;87.52
42067;BME280;27734;47.028;28.820;2024-02-15T09:58:47;101114.63;;;5.83;87.91
42067;BME280;27734;47.028;28.820;2024-02-15T10:01:23;101105.50;;;5.90;88.23
42067;BME280;27734;47.028;28.820;2024-02-15T10:03:59;101108.50;;;5.96;87.77
42067;BME280;27734;47.028;28.820;2024-02-15T10:06:37;101114.13;;;6.02;87.46
42067;BME280;27734;47.028;28.820;2024-02-15T10:09:30;101107.30;;;6.04;87.85
42067;BME280;27734;47.028;28.820;2024-02-15T10:12:02;101116.24;;;6.08;87.80
42067;BME280;27734;47.028;28.820;2024-02-15T10:14:36;101118.75;;;6.06;87.18
42067;BME280;27734;47.028;28.820;2024-02-15T10:17:09;101115.95;;;6.03;87.25
42067;BME280;27734;47.028;28.820;2024-02-15T10:19:42;101112.32;;;6.01;87.54
42067;BME280;27734;47.028;28.820;2024-02-15T10:22:14;101119.54;;;6.05;87.98
42067;BME280;27734;47.028;28.820;2024-02-15T10:24:47;101112.61;;;6.06;88.01
42067;BME280;27734;47.028;28.820;2024-02-15T10:27:24;101123.13;;;6.07;87.30
42067;BME280;27734;47.028;28.820;2024-02-15T10:30:16;101113.34;;;6.03;87.35
42067;BME280;27734;47.028;28.820;2024-02-15T10:32:50;101119.05;;;5.98;87.36
42067;BME280;27734;47.028;28.820;2024-02-15T10:35:22;101123.83;;;5.91;87.57
42067;BME280;27734;47.028;28.820;2024-02-15T10:38:06;101120.23;;;5.89;87.84
42067;BME280;27734;47.028;28.820;2024-02-15T10:40:42;101117.53;;;5.88;87.32
42067;BME280;27734;47.028;28.820;2024-02-15T10:43:17;101110.31;;;5.84;87.63
42067;BME280;27734;47.028;28.820;2024-02-15T10:45:49;101108.70;;;5.86;87.36
42067;BME280;27734;47.028;28.820;2024-02-15T10:48:22;101104.41;;;5.86;87.77
42067;BME280;27734;47.028;28.820;2024-02-15T10:50:55;101109.09;;;5.92;87.67
42067;BME280;27734;47.028;28.820;2024-02-15T10:53:30;101111.10;;;5.96;87.68
42067;BME280;27734;47.028;28.820;2024-02-15T10:56:08;101116.73;;;6.02;87.77
42067;BME280;27734;47.028;28.820;2024-02-15T10:58:49;101107.84;;;5.99;87.11
42067;BME280;27734;47.028;28.820;2024-02-15T11:01:23;101111.33;;;5.99;87.60
42067;BME280;27734;47.028;28.820;2024-02-15T11:04:04;101102.73;;;6.00;87.42
42067;BME280;27734;47.028;28.820;2024-02-15T11:06:45;101102.82;;;6.02;87.63
42067;BME280;27734;47.028;28.820;2024-02-15T11:09:19;101097.91;;;6.06;87.78
42067;BME280;27734;47.028;28.820;2024-02-15T11:11:58;101105.09;;;6.10;87.72
42067;BME280;27734;47.028;28.820;2024-02-15T11:14:33;101106.11;;;6.13;87.14
42067;BME280;27734;47.028;28.820;2024-02-15T11:17:07;101104.30;;;6.11;87.52
42067;BME280;27734;47.028;28.820;2024-02-15T11:19:44;101105.38;;;6.15;87.96
42067;BME280;27734;47.028;28.820;2024-02-15T11:22:18;101112.11;;;6.11;87.34
42067;BME280;27734;47.028;28.820;2024-02-15T11:24:52;101110.30;;;6.10;87.70
42067;BME280;27734;47.028;28.820;2024-02-15T11:27:29;101105.92;;;6.09;87.43
42067;BME280;27734;47.028;28.820;2024-02-15T11:30:02;101104.20;;;6.10;87.67
42067;BME280;27734;47.028;28.820;2024-02-15T11:32:45;101104.39;;;6.13;87.19
42067;BME280;27734;47.028;28.820;2024-02-15T11:35:20;101094.86;;;6.14;87.42
42067;BME280;27734;47.028;28.820;2024-02-15T11:37:57;101093.18;;;6.14;87.74
42067;BME280;27734;47.028;28.820;2024-02-15T11:41:06;101084.63;;;6.17;87.57
42067;BME280;27734;47.028;28.820;2024-02-15T11:43:49;101088.76;;;6.13;87.83
42067;BME280;27734;47.028;28.820;2024-02-15T11:46:30;101089.66;;;6.14;87.60
42067;BME280;27734;47.028;28.820;2024-02-15T11:49:16;101095.05;;;6.17;87.92
42067;BME280;27734;47.028;28.820;2024-02-15T11:51:49;101093.47;;;6.19;87.56
42067;BME280;27734;47.028;28.820;2024-02-15T11:54:24;101091.16;;;6.23;87.53
42067;BME280;27734;47.028;28.820;2024-02-15T11:56:57;101090.23;;;6.23;87.89
42067;BME280;27734;47.028;28.820;2024-02-15T11:59:47;101093.86;;;6.25;87.85
42067;BME280;27734;47.028;28.820;2024-02-15T12:02:44;101101.48;;;6.22;87.38
42067;BME280;27734;47.028;28.820;2024-02-15T12:05:34;101088.86;;;6.15;88.06
42067;BME280;27734;47.028;28.820;2024-02-15T12:08:26;101088.06;;;6.16;87.62
42067;BME280;27734;47.028;28.820;2024-02-15T12:11:16;101092.16;;;6.12;87.72
42067;BME280;27734;47.028;28.820;2024-02-15T12:14:11;101092.16;;;6.12;87.64
42067;BME280;27734;47.028;28.820;2024-02-15T12:17:07;101085.86;;;6.08;87.56
42067;BME280;27734;47.028;28.820;2024-02-15T12:19:59;101097.27;;;6.10;87.74
42067;BME280;27734;47.028;28.820;2024-02-15T12:22:33;101095.30;;;6.06;87.82
42067;BME280;27734;47.028;28.820;2024-02-15T12:25:15;101089.98;;;6.05;87.82
42067;BME280;27734;47.028;28.820;2024-02-15T12:27:58;101087.29;;;6.03;88.07
42067;BME280;27734;47.028;28.820;2024-02-15T12:30:34;101088.88;;;6.01;87.61
42067;BME280;27734;47.028;28.820;2024-02-15T12:33:14;101095.89;;;6.02;88.08
42067;BME280;27734;47.028;28.820;2024-02-15T12:36:08;101102.73;;;6.00;87.77
42067;BME280;27734;47.028;28.820;2024-02-15T12:38:40;101092.11;;;5.97;87.69
42067;BME280;27734;47.028;28.820;2024-02-15T12:41:25;101097.41;;;5.99;87.44
42067;BME280;27734;47.028;28.820;2024-02-15T12:43:56;101100.68;;;5.96;87.85
42067;BME280;27734;47.028;28.820;2024-02-15T12:46:30;101104.31;;;5.98;88.37
42067;BME280;27734;47.028;28.820;2024-02-15T12:49:12;101102.53;;;5.97;88.14
42067;BME280;27734;47.028;28.820;2024-02-15T12:51:53;101099.00;;;5.97;88.28
42067;BME280;27734;47.028;28.820;2024-02-15T12:54:29;101102.40;;;5.96;88.06
42067;BME280;27734;47.028;28.820;2024-02-15T12:57:10;101101.61;;;5.97;88.17
42067;BME280;27734;47.028;28.820;2024-02-15T12:59:43;101108.50;;;5.96;88.17
42067;BME280;27734;47.028;28.820;2024-02-15T13:02:14;101109.29;;;5.95;87.89
42067;BME280;27734;47.028;28.820;2024-02-15T13:04:46;101111.10;;;5.96;88.07
42067;BME280;27734;47.028;28.820;2024-02-15T13:07:17;101106.91;;;5.98;88.35
42067;BME280;27734;47.028;28.820;2024-02-15T13:09:49;101111.33;;;5.99;88.31
42067;BME280;27734;47.028;28.820;2024-02-15T13:12:22;101112.32;;;6.01;88.59
42067;BME280;27734;47.028;28.820;2024-02-15T13:14:54;101117.63;;;6.03;88.65
42067;BME280;27734;47.028;28.820;2024-02-15T13:17:25;101113.24;;;6.02;88.45
42067;BME280;27734;47.028;28.820;2024-02-15T13:19:57;101111.53;;;6.02;88.47
42067;BME280;27734;47.028;28.820;2024-02-15T13:22:34;101109.81;;;6.03;88.63
42067;BME280;27734;47.028;28.820;2024-02-15T13:25:13;101109.81;;;6.03;88.73
42067;BME280;27734;47.028;28.820;2024-02-15T13:27:49;101105.53;;;6.03;88.47